Time,TemperatureF,DewpointF,PressureIn,WindDirection,WindDirectionDegrees,WindSpeedMPH,WindSpeedGustMPH,Humidity,HourlyPrecipIn,Conditions,Clouds,dailyrainin,SolarRadiationWatts/m^2,SoftwareType,DateUTC
2013-04-30 00:02:00,48.0,34.0,-100.00,NW,311,5.0,19.0,59,0.00,,,0.00,0.000000,,2013-04-30 06:02:00,
2013-04-30 00:12:00,48.0,34.0,-100.00,NW,311,5.0,19.0,59,0.00,,,0.00,0.000000,,2013-04-30 06:12:00,
2013-04-30 00:21:00,48.0,34.0,-100.00,NW,311,5.0,19.0,59,0.00,,,0.00,0.000000,,2013-04-30 06:21:00,
2013-04-30 00:31:00,48.0,34.0,-100.00,NW,311,5.0,19.0,59,0.00,,,0.00,0.000000,,2013-04-30 06:31:00,
2013-04-30 01:01:00,45.0,34.0,-100.00,NW,317,11.0,17.0,66,0.00,,,0.00,0.000000,,2013-04-30 07:01:00,
2013-04-30 01:11:00,45.0,34.0,-100.00,NW,317,11.0,17.0,66,0.00,,,0.00,0.000000,,2013-04-30 07:11:00,
2013-04-30 01:21:00,45.0,34.0,-100.00,NW,317,11.0,17.0,66,0.00,,,0.00,0.000000,,2013-04-30 07:21:00,
2013-04-30 01:31:00,45.0,34.0,-100.00,NW,317,11.0,17.0,66,0.00,,,0.00,0.000000,,2013-04-30 07:31:00,
2013-04-30 02:02:00,42.0,29.0,-100.00,NE,41,5.0,30.0,59,0.00,,,0.00,2.000000,,2013-04-30 08:02:00,
2013-04-30 02:11:00,42.0,29.0,-100.00,NE,41,5.0,30.0,59,0.00,,,0.00,2.000000,,2013-04-30 08:11:00,
2013-04-30 02:22:00,42.0,29.0,-100.00,NE,41,5.0,30.0,59,0.00,,,0.00,2.000000,,2013-04-30 08:22:00,
2013-04-30 02:32:00,42.0,29.0,-100.00,NE,41,5.0,30.0,59,0.00,,,0.00,2.000000,,2013-04-30 08:32:00,
2013-04-30 03:01:00,43.0,30.0,-100.00,NW,312,4.0,13.0,60,0.00,,,0.00,8.000000,,2013-04-30 09:01:00,
2013-04-30 03:11:00,43.0,30.0,-100.00,NW,312,4.0,13.0,60,0.00,,,0.00,8.000000,,2013-04-30 09:11:00,
2013-04-30 03:22:00,43.0,30.0,-100.00,NW,312,4.0,13.0,60,0.00,,,0.00,8.000000,,2013-04-30 09:22:00,
2013-04-30 03:33:00,43.0,30.0,-100.00,NW,312,4.0,13.0,60,0.00,,,0.00,8.000000,,2013-04-30 09:33:00,
2013-04-30 04:03:00,41.0,30.0,-100.00,North,357,5.0,14.0,65,0.00,,,0.00,6.000000,,2013-04-30 10:03:00,
2013-04-30 04:11:00,41.0,30.0,-100.00,North,357,5.0,14.0,65,0.00,,,0.00,6.000000,,2013-04-30 10:11:00,
2013-04-30 04:22:00,41.0,30.0,-100.00,North,357,5.0,14.0,65,0.00,,,0.00,6.000000,,2013-04-30 10:22:00,
2013-04-30 04:32:00,41.0,30.0,-100.00,North,357,5.0,14.0,65,0.00,,,0.00,6.000000,,2013-04-30 10:32:00,
2013-04-30 05:02:00,39.0,24.0,-100.00,NW,308,7.0,12.0,55,0.00,,,0.00,6.000000,,2013-04-30 11:02:00,
2013-04-30 05:11:00,39.0,24.0,-100.00,NW,308,7.0,12.0,55,0.00,,,0.00,6.000000,,2013-04-30 11:11:00,
2013-04-30 05:21:00,39.0,24.0,-100.00,NW,308,7.0,12.0,55,0.00,,,0.00,6.000000,,2013-04-30 11:21:00,
2013-04-30 05:31:00,39.0,24.0,-100.00,NW,308,7.0,12.0,55,0.00,,,0.00,6.000000,,2013-04-30 11:31:00,
2013-04-30 06:01:00,39.0,24.0,-100.00,NW,313,8.0,18.0,55,0.00,,,0.00,10.000000,,2013-04-30 12:01:00,
2013-04-30 06:11:00,39.0,24.0,-100.00,NW,313,8.0,18.0,55,0.00,,,0.00,10.000000,,2013-04-30 12:11:00,
2013-04-30 06:21:00,39.0,24.0,-100.00,NW,313,8.0,18.0,55,0.00,,,0.00,10.000000,,2013-04-30 12:21:00,
2013-04-30 06:31:00,39.0,24.0,-100.00,NW,313,8.0,18.0,55,0.00,,,0.00,10.000000,,2013-04-30 12:31:00,
2013-04-30 08:02:00,39.0,14.0,-100.00,NW,315,9.0,23.0,36,-99.99,,,0.00,34.000000,,2013-04-30 14:02:00,
2013-04-30 08:11:00,39.0,14.0,-100.00,NW,315,9.0,23.0,36,-99.99,,,0.00,34.000000,,2013-04-30 14:11:00,
2013-04-30 08:21:00,39.0,14.0,-100.00,NW,315,9.0,23.0,36,-99.99,,,0.00,34.000000,,2013-04-30 14:21:00,
2013-04-30 08:31:00,39.0,14.0,-100.00,NW,315,9.0,23.0,36,-99.99,,,0.00,34.000000,,2013-04-30 14:31:00,
2013-04-30 09:01:00,41.0,14.0,-100.00,WNW,302,9.0,29.0,33,0.00,,,0.00,349.000000,,2013-04-30 15:01:00,
2013-04-30 09:11:00,41.0,14.0,-100.00,WNW,302,9.0,29.0,33,0.00,,,0.00,349.000000,,2013-04-30 15:11:00,
2013-04-30 09:21:00,41.0,14.0,-100.00,WNW,302,9.0,29.0,33,0.00,,,0.00,349.000000,,2013-04-30 15:21:00,
2013-04-30 09:32:00,41.0,14.0,-100.00,WNW,302,9.0,29.0,33,0.00,,,0.00,349.000000,,2013-04-30 15:32:00,
2013-04-30 10:02:00,45.0,17.0,-100.00,WNW,293,12.0,26.0,32,0.00,,,0.00,468.000000,,2013-04-30 16:02:00,
2013-04-30 10:12:00,45.0,17.0,-100.00,WNW,293,12.0,26.0,32,0.00,,,0.00,468.000000,,2013-04-30 16:12:00,
2013-04-30 10:23:00,45.0,17.0,-100.00,WNW,293,12.0,26.0,32,0.00,,,0.00,468.000000,,2013-04-30 16:23:00,
2013-04-30 10:33:00,45.0,17.0,-100.00,WNW,293,12.0,26.0,32,0.00,,,0.00,468.000000,,2013-04-30 16:33:00,
2013-04-30 11:02:00,44.0,15.0,-100.00,WNW,301,5.0,27.0,30,0.00,,,0.00,268.000000,,2013-04-30 17:02:00,
2013-04-30 11:12:00,44.0,15.0,-100.00,WNW,301,5.0,27.0,30,0.00,,,0.00,268.000000,,2013-04-30 17:12:00,
2013-04-30 11:22:00,44.0,15.0,-100.00,WNW,301,5.0,27.0,30,0.00,,,0.00,268.000000,,2013-04-30 17:22:00,
2013-04-30 11:32:00,44.0,15.0,-100.00,WNW,301,5.0,27.0,30,0.00,,,0.00,268.000000,,2013-04-30 17:32:00,
2013-04-30 12:01:00,47.0,19.0,-100.00,WNW,299,4.0,15.0,32,0.00,,,0.00,193.000000,,2013-04-30 18:01:00,
2013-04-30 12:11:00,47.0,19.0,-100.00,WNW,299,4.0,15.0,32,0.00,,,0.00,193.000000,,2013-04-30 18:11:00,
2013-04-30 12:22:00,47.0,19.0,-100.00,WNW,299,4.0,15.0,32,0.00,,,0.00,193.000000,,2013-04-30 18:22:00,
2013-04-30 12:32:00,47.0,19.0,-100.00,WNW,299,4.0,15.0,32,0.00,,,0.00,193.000000,,2013-04-30 18:32:00,
2013-04-30 13:01:00,50.0,22.0,-100.00,SE,129,7.0,9.0,33,0.00,,,0.00,151.000000,,2013-04-30 19:01:00,
2013-04-30 13:11:00,50.0,22.0,-100.00,SE,129,7.0,9.0,33,0.00,,,0.00,151.000000,,2013-04-30 19:11:00,
2013-04-30 13:22:00,50.0,22.0,-100.00,SE,129,7.0,9.0,33,0.00,,,0.00,151.000000,,2013-04-30 19:22:00,
2013-04-30 13:32:00,50.0,22.0,-100.00,SE,129,7.0,9.0,33,0.00,,,0.00,151.000000,,2013-04-30 19:32:00,
2013-04-30 14:02:00,48.0,22.0,-100.00,ESE,105,7.0,18.0,35,0.00,,,0.00,14.000000,,2013-04-30 20:02:00,
2013-04-30 14:11:00,48.0,22.0,-100.00,ESE,105,7.0,18.0,35,0.00,,,0.00,14.000000,,2013-04-30 20:11:00,
2013-04-30 14:21:00,48.0,22.0,-100.00,ESE,105,7.0,18.0,35,0.00,,,0.00,14.000000,,2013-04-30 20:21:00,
2013-04-30 14:32:00,48.0,22.0,-100.00,ESE,105,7.0,18.0,35,0.00,,,0.00,14.000000,,2013-04-30 20:32:00,
2013-04-30 15:02:00,45.0,23.0,-100.00,East,91,6.0,17.0,41,0.00,,,0.00,9.000000,,2013-04-30 21:02:00,
2013-04-30 15:11:00,45.0,23.0,-100.00,East,91,6.0,17.0,41,0.00,,,0.00,9.000000,,2013-04-30 21:11:00,
2013-04-30 15:22:00,45.0,23.0,-100.00,East,91,6.0,17.0,41,0.00,,,0.00,9.000000,,2013-04-30 21:22:00,
2013-04-30 15:32:00,45.0,23.0,-100.00,East,91,6.0,17.0,41,0.00,,,0.00,9.000000,,2013-04-30 21:32:00,
2013-04-30 16:02:00,43.0,24.0,-100.00,ENE,67,7.0,20.0,46,0.00,,,0.00,0.000000,,2013-04-30 22:02:00,
2013-04-30 16:12:00,43.0,24.0,-100.00,ENE,67,7.0,20.0,46,0.00,,,0.00,0.000000,,2013-04-30 22:12:00,
2013-04-30 16:23:00,43.0,24.0,-100.00,ENE,67,7.0,20.0,46,0.00,,,0.00,0.000000,,2013-04-30 22:23:00,
2013-04-30 16:32:00,43.0,24.0,-100.00,ENE,67,7.0,20.0,46,0.00,,,0.00,0.000000,,2013-04-30 22:32:00,
2013-04-30 17:02:00,37.0,27.0,-100.00,East,87,7.0,21.0,67,0.00,,,0.00,1.000000,,2013-04-30 23:02:00,
2013-04-30 17:12:00,37.0,27.0,-100.00,East,87,7.0,21.0,67,0.00,,,0.00,1.000000,,2013-04-30 23:12:00,
2013-04-30 17:22:00,37.0,27.0,-100.00,East,87,7.0,21.0,67,0.00,,,0.00,1.000000,,2013-04-30 23:22:00,
2013-04-30 17:32:00,37.0,27.0,-100.00,East,87,7.0,21.0,67,0.00,,,0.00,1.000000,,2013-04-30 23:32:00,
2013-04-30 18:02:00,34.0,31.0,-100.00,East,89,3.0,20.0,90,0.00,,,0.00,1.000000,,2013-05-01 00:02:00,
2013-04-30 18:11:00,34.0,31.0,-100.00,East,89,3.0,20.0,90,0.00,,,0.00,1.000000,,2013-05-01 00:11:00,
2013-04-30 18:22:00,34.0,31.0,-100.00,East,89,3.0,20.0,90,0.00,,,0.00,1.000000,,2013-05-01 00:22:00,
2013-04-30 18:32:00,34.0,31.0,-100.00,East,89,3.0,20.0,90,0.00,,,0.00,1.000000,,2013-05-01 00:32:00,
2013-04-30 18:52:00,33.0,32.0,-100.00,NNE,29,3.0,10.0,96,0.00,,,0.00,10.000000,,2013-05-01 00:52:00,
2013-04-30 19:01:00,33.0,32.0,-100.00,NNE,29,3.0,10.0,96,0.00,,,0.00,10.000000,,2013-05-01 01:01:00,
2013-04-30 19:11:00,33.0,32.0,-100.00,NNE,29,3.0,10.0,96,0.00,,,0.00,10.000000,,2013-05-01 01:11:00,
2013-04-30 19:21:00,33.0,32.0,-100.00,NNE,29,3.0,10.0,96,0.00,,,0.00,10.000000,,2013-05-01 01:21:00,
2013-04-30 19:31:00,33.0,32.0,-100.00,NNE,29,3.0,10.0,96,0.00,,,0.00,10.000000,,2013-05-01 01:31:00,
2013-04-30 20:02:00,33.0,32.0,-100.00,NNW,342,5.0,19.0,97,0.00,,,0.00,15.000000,,2013-05-01 02:02:00,
2013-04-30 20:11:00,33.0,32.0,-100.00,NNW,342,5.0,19.0,97,0.00,,,0.00,15.000000,,2013-05-01 02:11:00,
2013-04-30 20:21:00,33.0,32.0,-100.00,NNW,342,5.0,19.0,97,0.00,,,0.00,15.000000,,2013-05-01 02:21:00,
2013-04-30 20:32:00,33.0,32.0,-100.00,NNW,342,5.0,19.0,97,0.00,,,0.00,15.000000,,2013-05-01 02:32:00,
2013-04-30 21:02:00,32.0,31.0,-100.00,NW,312,3.0,16.0,97,0.00,,,0.00,16.000000,,2013-05-01 03:02:00,
2013-04-30 21:11:00,32.0,31.0,-100.00,NW,312,3.0,16.0,97,0.00,,,0.00,16.000000,,2013-05-01 03:11:00,
2013-04-30 21:21:00,32.0,31.0,-100.00,NW,312,3.0,16.0,97,0.00,,,0.00,16.000000,,2013-05-01 03:21:00,
2013-04-30 21:33:00,32.0,31.0,-100.00,NW,312,3.0,16.0,97,0.00,,,0.00,16.000000,,2013-05-01 03:33:00,
2013-04-30 22:03:00,32.0,31.0,-100.00,NNE,12,4.0,12.0,97,0.00,,,-99.99,15.000000,,2013-05-01 04:03:00,
2013-04-30 22:12:00,32.0,31.0,-100.00,NNE,12,4.0,12.0,97,0.00,,,-99.99,15.000000,,2013-05-01 04:12:00,
2013-04-30 22:22:00,32.0,31.0,-100.00,NNE,12,4.0,12.0,97,0.00,,,-99.99,15.000000,,2013-05-01 04:22:00,
2013-04-30 22:32:00,32.0,31.0,-100.00,NNE,12,4.0,12.0,97,0.00,,,-99.99,15.000000,,2013-05-01 04:32:00,
2013-04-30 23:02:00,31.0,30.0,-100.00,NNW,347,5.0,17.0,97,0.00,,,0.00,12.000000,,2013-05-01 05:02:00,
2013-04-30 23:11:00,31.0,30.0,-100.00,NNW,347,5.0,17.0,97,0.00,,,0.00,12.000000,,2013-05-01 05:11:00,
2013-04-30 23:21:00,31.0,30.0,-100.00,NNW,347,5.0,17.0,97,0.00,,,0.00,12.000000,,2013-05-01 05:21:00,
2013-04-30 23:32:00,31.0,30.0,-100.00,NNW,347,5.0,17.0,97,0.00,,,0.00,12.000000,,2013-05-01 05:32:00,